createdAt,value
2018-06-22T00:01:27.494Z,9.70
2018-06-22T00:03:54.335Z,9.60
2018-06-22T00:06:21.286Z,9.60
2018-06-22T00:08:48.237Z,9.60
2018-06-22T00:11:15.598Z,9.50
2018-06-22T00:13:42.549Z,9.50
2018-06-22T00:16:09.810Z,9.50
2018-06-22T00:18:36.664Z,9.50
2018-06-22T00:21:03.609Z,9.50
2018-06-22T00:23:30.556Z,9.50
2018-06-22T00:25:57.516Z,9.60
2018-06-22T00:28:24.562Z,9.40
2018-06-22T00:30:51.410Z,9.30
2018-06-22T00:33:18.360Z,9.30
2018-06-22T00:35:45.721Z,9.20
2018-06-22T00:38:12.579Z,9.20
2018-06-22T00:40:39.523Z,9.20
2018-06-22T00:43:06.370Z,9.20
2018-06-22T00:45:33.217Z,9.20
2018-06-22T00:48:00.069Z,9.10
2018-06-22T00:50:27.333Z,9.10
2018-06-22T00:52:54.276Z,9.10
2018-06-22T00:55:21.227Z,9.10
2018-06-22T00:57:48.077Z,9.10
2018-06-22T01:00:15.844Z,9.10
2018-06-22T01:02:42.796Z,9.00
2018-06-22T01:05:09.850Z,9.00
2018-06-22T01:07:38.233Z,9.10
2018-06-22T01:10:05.083Z,9.10
2018-06-22T01:12:32.034Z,9.00
2018-06-22T01:14:58.987Z,9.00
2018-06-22T01:17:25.834Z,9.00
2018-06-22T01:19:52.790Z,8.90
2018-06-22T01:22:19.720Z,9.00
2018-06-22T01:24:46.582Z,9.00
2018-06-22T01:27:13.535Z,9.00
2018-06-22T01:29:40.488Z,9.00
2018-06-22T01:32:07.437Z,9.00
2018-06-22T01:34:34.386Z,9.00
2018-06-22T01:37:01.339Z,9.10
2018-06-22T01:39:28.289Z,9.10
2018-06-22T01:41:55.239Z,9.10
2018-06-22T01:44:22.189Z,9.10
2018-06-22T01:46:49.143Z,9.10
2018-06-22T01:49:16.297Z,9.10
2018-06-22T01:51:43.250Z,9.10
2018-06-22T01:54:10.199Z,9.10
2018-06-22T01:56:37.190Z,9.20
2018-06-22T01:59:04.103Z,9.20
2018-06-22T02:01:31.051Z,9.20
2018-06-22T02:03:58.003Z,9.20
2018-06-22T02:06:24.953Z,9.20
2018-06-22T02:08:51.905Z,9.30
2018-06-22T02:11:18.857Z,9.30
2018-06-22T02:13:45.704Z,9.30
2018-06-22T02:16:12.655Z,9.40
2018-06-22T02:18:39.605Z,9.40
2018-06-22T02:21:06.558Z,9.50
2018-06-22T02:23:33.508Z,9.60
2018-06-22T02:26:00.459Z,9.70
2018-06-22T02:28:27.307Z,9.70
2018-06-22T02:30:54.259Z,9.80
2018-06-22T02:33:21.334Z,9.90
2018-06-22T02:35:48.163Z,10.00
2018-06-22T02:38:15.115Z,10.00
2018-06-22T02:40:42.104Z,10.10
2018-06-22T02:43:10.549Z,10.10
2018-06-22T02:45:37.499Z,10.10
2018-06-22T02:48:04.451Z,10.10
2018-06-22T02:50:31.399Z,10.20
2018-06-22T02:52:58.250Z,10.20
2018-06-22T02:55:25.199Z,10.30
2018-06-22T02:57:52.057Z,10.30
2018-06-22T03:00:18.911Z,10.20
2018-06-22T03:02:45.952Z,10.10
2018-06-22T03:05:12.901Z,10.10
2018-06-22T03:07:39.853Z,10.20
2018-06-22T03:10:07.212Z,10.10
2018-06-22T03:12:34.014Z,10.20
2018-06-22T03:15:01.629Z,10.20
2018-06-22T03:17:28.576Z,10.10
2018-06-22T03:19:55.527Z,10.10
2018-06-22T03:22:22.685Z,10.00
2018-06-22T03:24:50.043Z,10.00
2018-06-22T03:27:17.095Z,10.10
2018-06-22T03:29:43.943Z,10.10
2018-06-22T03:32:10.802Z,10.10
2018-06-22T03:34:37.745Z,10.00
2018-06-22T03:37:04.696Z,9.90
2018-06-22T03:39:31.664Z,10.00
2018-06-22T03:42:00.134Z,9.80
2018-06-22T03:44:27.084Z,9.80
2018-06-22T03:46:53.933Z,9.80
2018-06-22T03:49:20.780Z,9.80
2018-06-22T03:51:47.730Z,9.70
2018-06-22T03:54:14.476Z,9.70
2018-06-22T03:56:41.452Z,9.60
2018-06-22T03:59:08.380Z,9.70
2018-06-22T04:01:35.227Z,9.70
2018-06-22T04:04:02.284Z,9.70
2018-06-22T04:06:29.128Z,9.80
2018-06-22T04:08:55.911Z,9.80
2018-06-22T04:11:22.729Z,9.80
2018-06-22T04:13:49.676Z,9.70
2018-06-22T04:16:16.523Z,9.70
2018-06-22T04:18:43.373Z,9.50
2018-06-22T04:21:10.223Z,9.50
2018-06-22T04:23:37.218Z,9.50
2018-06-22T04:26:04.022Z,9.50
2018-06-22T04:28:30.972Z,9.50
2018-06-22T04:30:57.828Z,9.50
2018-06-22T04:33:25.180Z,9.40
2018-06-22T04:35:51.927Z,9.40
2018-06-22T04:38:18.878Z,9.30
2018-06-22T04:40:45.625Z,9.30
2018-06-22T04:43:12.575Z,9.30
2018-06-22T04:45:39.523Z,9.30
2018-06-22T04:48:06.374Z,9.30
2018-06-22T04:50:33.221Z,9.30
2018-06-22T04:53:00.175Z,9.20
2018-06-22T04:55:27.021Z,9.30
2018-06-22T04:57:53.767Z,9.40
2018-06-22T05:00:20.616Z,9.40
2018-06-22T05:02:47.569Z,9.50
2018-06-22T05:05:14.520Z,9.50
2018-06-22T05:07:41.471Z,9.40
2018-06-22T05:10:08.420Z,9.50
2018-06-22T05:12:35.779Z,9.50
2018-06-22T05:15:02.737Z,9.50
2018-06-22T05:17:29.580Z,9.40
2018-06-22T05:19:56.532Z,9.30
2018-06-22T05:22:23.482Z,9.30
2018-06-22T05:24:50.461Z,9.30
2018-06-22T05:27:17.283Z,9.30
2018-06-22T05:29:44.237Z,9.30
2018-06-22T05:32:11.083Z,9.30
2018-06-22T05:34:38.075Z,9.30
2018-06-22T05:37:05.602Z,9.20
2018-06-22T05:39:32.549Z,9.20
2018-06-22T05:41:59.503Z,9.30
2018-06-22T05:44:26.448Z,9.10
2018-06-22T05:46:54.116Z,9.10
2018-06-22T05:49:21.066Z,9.10
2018-06-22T05:51:48.017Z,9.10
2018-06-22T05:54:14.765Z,9.10
2018-06-22T05:56:41.769Z,9.20
2018-06-22T05:59:09.077Z,9.20
2018-06-22T06:01:36.026Z,9.20
2018-06-22T06:04:02.874Z,9.10
2018-06-22T06:06:30.541Z,9.20
2018-06-22T06:08:57.491Z,9.10
2018-06-22T06:11:24.955Z,9.10
2018-06-22T06:13:51.907Z,9.10
2018-06-22T06:16:18.859Z,9.10
2018-06-22T06:18:45.809Z,9.10
2018-06-22T06:21:13.067Z,9.20
2018-06-22T06:23:39.811Z,9.20
2018-06-22T06:26:06.762Z,9.30
2018-06-22T06:28:33.611Z,9.30
2018-06-22T06:31:00.460Z,9.50
2018-06-22T06:33:27.413Z,9.60
2018-06-22T06:35:54.567Z,9.70
2018-06-22T06:38:21.520Z,9.80
2018-06-22T06:40:48.776Z,9.90
2018-06-22T06:43:15.829Z,9.90
2018-06-22T06:45:42.782Z,9.80
2018-06-22T06:48:09.733Z,9.80
2018-06-22T06:50:36.785Z,9.80
2018-06-22T06:53:04.674Z,9.90
2018-06-22T06:55:31.610Z,9.80
2018-06-22T06:57:58.463Z,9.90
2018-06-22T07:00:25.409Z,10.10
2018-06-22T07:02:52.260Z,10.10
2018-06-22T07:05:19.307Z,10.20
2018-06-22T07:07:46.979Z,10.30
2018-06-22T07:10:13.829Z,10.30
2018-06-22T07:12:40.779Z,10.30
2018-06-22T07:15:07.624Z,10.40
2018-06-22T07:17:34.474Z,10.70
2018-06-22T07:20:01.424Z,10.80
2018-06-22T07:22:28.374Z,11.00
2018-06-22T07:24:55.226Z,11.20
2018-06-22T07:27:22.481Z,11.20
2018-06-22T07:29:49.329Z,11.30
2018-06-22T07:32:16.179Z,11.20
2018-06-22T07:34:42.925Z,11.30
2018-06-22T07:37:10.737Z,11.30
2018-06-22T07:39:38.975Z,11.20
2018-06-22T07:42:07.585Z,11.20
2018-06-22T07:44:37.048Z,11.30
2018-06-22T07:47:07.180Z,11.10
2018-06-22T07:49:36.159Z,11.10
2018-06-22T07:52:03.351Z,11.00
2018-06-22T07:54:30.203Z,11.10
2018-06-22T07:56:57.148Z,11.20
2018-06-22T07:59:23.895Z,11.00
2018-06-22T08:01:50.744Z,10.80
2018-06-22T08:04:17.592Z,10.90
2018-06-22T08:06:44.443Z,10.90
2018-06-22T08:09:11.801Z,11.00
2018-06-22T08:11:38.652Z,11.10
2018-06-22T08:14:05.500Z,11.20
2018-06-22T08:16:32.244Z,11.40
2018-06-22T08:18:59.198Z,11.50
2018-06-22T08:21:26.456Z,11.40
2018-06-22T08:23:53.302Z,11.40
2018-06-22T08:26:20.252Z,11.50
2018-06-22T08:28:47.156Z,11.60
2018-06-22T08:31:14.667Z,11.80
2018-06-22T08:33:41.515Z,11.80
2018-06-22T08:36:08.467Z,12.00
2018-06-22T08:38:35.417Z,12.00
2018-06-22T08:41:02.227Z,12.30
2018-06-22T08:43:30.142Z,12.30
2018-06-22T08:45:57.093Z,12.20
2018-06-22T08:48:24.039Z,12.40
2018-06-22T08:50:50.890Z,12.90
2018-06-22T08:53:17.736Z,13.30
2018-06-22T08:55:44.713Z,13.60
2018-06-22T08:58:13.172Z,13.30
2018-06-22T09:00:40.125Z,13.30
2018-06-22T09:03:07.180Z,13.60
2018-06-22T09:05:34.234Z,13.70
2018-06-22T09:08:01.079Z,13.70
2018-06-22T09:10:28.746Z,13.30
2018-06-22T09:12:55.595Z,13.30
2018-06-22T09:15:22.447Z,13.50
2018-06-22T09:17:49.394Z,13.50
2018-06-22T09:20:16.348Z,13.90
2018-06-22T09:22:43.306Z,14.50
2018-06-22T09:25:10.147Z,14.70
2018-06-22T09:27:36.889Z,14.90
2018-06-22T09:30:03.739Z,14.80
2018-06-22T09:32:32.532Z,15.10
2018-06-22T09:34:59.611Z,15.20
2018-06-22T09:37:27.049Z,15.30
2018-06-22T09:39:53.897Z,15.40
2018-06-22T09:42:20.747Z,15.30
2018-06-22T09:44:47.491Z,15.30
2018-06-22T09:47:14.340Z,15.30
2018-06-22T09:49:41.086Z,14.70
2018-06-22T09:52:08.755Z,14.40
2018-06-22T09:54:35.708Z,14.40
2018-06-22T09:57:02.656Z,14.20
2018-06-22T09:59:29.503Z,14.20
2018-06-22T10:01:56.659Z,14.30
2018-06-22T10:04:23.609Z,14.50
2018-06-22T10:06:50.563Z,14.70
2018-06-22T10:09:17.514Z,14.80
2018-06-22T10:11:44.463Z,15.00
2018-06-22T10:14:21.190Z,15.40
2018-06-22T10:16:48.394Z,15.50
2018-06-22T10:19:15.345Z,15.70
2018-06-22T10:21:42.193Z,15.70
2018-06-22T10:24:09.683Z,15.60
2018-06-22T10:26:49.159Z,15.50
2018-06-22T10:29:19.113Z,15.40
2018-06-22T10:31:46.072Z,15.60
2018-06-22T10:34:14.188Z,15.30
2018-06-22T10:36:41.837Z,15.20
2018-06-22T10:39:09.519Z,15.20
2018-06-22T10:41:37.194Z,15.50
2018-06-22T10:44:05.444Z,15.80
2018-06-22T10:46:33.809Z,16.00
2018-06-22T10:49:01.174Z,16.00
2018-06-22T10:51:28.997Z,16.00
2018-06-22T10:53:56.745Z,16.30
2018-06-22T10:56:24.680Z,16.20
2018-06-22T10:58:52.452Z,16.10
2018-06-22T11:01:19.915Z,16.10
2018-06-22T11:03:47.272Z,16.00
2018-06-22T11:06:14.222Z,15.80
2018-06-22T11:08:41.175Z,15.60
2018-06-22T11:11:08.340Z,15.30
2018-06-22T11:13:35.693Z,15.20
2018-06-22T11:16:02.642Z,15.10
2018-06-22T11:18:31.048Z,14.90
2018-06-22T11:20:58.079Z,14.80
2018-06-22T11:23:24.873Z,14.80
2018-06-22T11:25:51.775Z,14.70
2018-06-22T11:31:07.576Z,14.60
2018-06-22T11:33:39.880Z,14.70
2018-06-22T11:36:08.846Z,14.80
2018-06-22T11:38:35.903Z,14.80
2018-06-22T11:41:02.952Z,14.50
2018-06-22T11:43:29.801Z,14.40
2018-06-22T11:45:56.650Z,14.40
2018-06-22T11:48:32.554Z,14.50
2018-06-22T11:50:59.664Z,14.50
2018-06-22T11:53:26.612Z,14.50
2018-06-22T11:55:53.649Z,14.40
2018-06-22T11:58:20.617Z,14.40
2018-06-22T12:00:47.462Z,14.40
2018-06-22T12:03:14.212Z,14.60
2018-06-22T12:05:41.160Z,14.70
2018-06-22T12:08:08.115Z,14.80
2018-06-22T12:10:35.049Z,14.80
2018-06-22T12:13:02.017Z,14.60
2018-06-22T12:15:29.684Z,14.90
2018-06-22T12:17:56.426Z,14.90
2018-06-22T12:20:23.277Z,14.90
2018-06-22T12:22:50.226Z,14.90
2018-06-22T12:25:17.074Z,15.10
2018-06-22T12:27:43.924Z,14.90
2018-06-22T12:30:10.873Z,14.60
2018-06-22T12:32:37.729Z,14.70
2018-06-22T12:35:05.292Z,14.80
2018-06-22T12:37:32.146Z,14.70
2018-06-22T12:39:59.805Z,14.70
2018-06-22T12:42:26.856Z,14.70
2018-06-22T12:44:54.222Z,14.60
2018-06-22T12:47:22.191Z,14.80
2018-06-22T12:49:50.268Z,14.40
2018-06-22T12:52:20.841Z,14.60
2018-06-22T12:54:47.752Z,14.50
2018-06-22T12:57:14.705Z,14.70
2018-06-22T12:59:41.568Z,14.70
2018-06-22T13:02:08.708Z,14.90
2018-06-22T13:04:35.969Z,14.90
2018-06-22T13:07:04.311Z,15.00
2018-06-22T13:09:32.926Z,15.10
2018-06-22T13:12:02.404Z,15.40
2018-06-22T13:14:31.761Z,15.40
2018-06-22T13:16:58.923Z,15.60
2018-06-22T13:19:26.782Z,16.10
2018-06-22T13:21:54.556Z,16.10
2018-06-22T13:24:21.505Z,16.40
2018-06-22T13:26:48.348Z,17.00
2018-06-22T13:29:15.202Z,17.60
2018-06-22T13:31:42.248Z,17.80
2018-06-22T13:34:09.508Z,18.00
2018-06-22T13:36:36.662Z,18.10
2018-06-22T13:39:03.511Z,17.90
2018-06-22T13:41:30.359Z,17.80
2018-06-22T13:43:57.312Z,17.80
2018-06-22T13:46:24.370Z,18.20
2018-06-22T13:48:51.315Z,18.50
2018-06-22T13:51:18.181Z,18.50
2018-06-22T13:53:45.217Z,18.50
2018-06-22T13:56:12.066Z,18.50
2018-06-22T13:58:39.018Z,18.30
2018-06-22T14:01:05.967Z,18.00
2018-06-22T14:03:33.530Z,17.70
2018-06-22T14:06:21.390Z,17.70
2018-06-22T14:08:48.514Z,17.80
2018-06-22T14:11:15.569Z,18.20
2018-06-22T14:13:42.724Z,18.30
2018-06-22T14:16:09.778Z,18.40
2018-06-22T14:18:36.728Z,18.20
2018-06-22T14:21:05.011Z,18.00
2018-06-22T14:23:34.801Z,17.80
2018-06-22T14:26:01.885Z,17.80
2018-06-22T14:28:28.738Z,17.70
2018-06-22T14:30:55.909Z,17.50
2018-06-22T14:33:23.550Z,17.60
2018-06-22T14:35:50.501Z,17.50
2018-06-22T14:38:17.295Z,17.70
2018-06-22T14:40:45.030Z,17.30
2018-06-22T14:43:12.377Z,17.30
2018-06-22T14:46:03.021Z,17.10
2018-06-22T14:48:29.814Z,16.90
2018-06-22T14:51:15.027Z,16.60
2018-06-22T14:53:47.700Z,16.30
2018-06-22T14:56:30.337Z,16.20
2018-06-22T14:59:13.524Z,16.10
2018-06-22T15:01:57.154Z,16.00
2018-06-22T15:04:39.780Z,15.60
2018-06-22T15:07:25.234Z,15.10
2018-06-22T15:09:52.054Z,15.10
2018-06-22T15:12:19.005Z,15.20
2018-06-22T15:14:46.061Z,15.30
2018-06-22T15:17:13.827Z,15.20
2018-06-22T15:19:40.781Z,15.30
2018-06-22T15:22:07.701Z,15.30
2018-06-22T15:24:34.621Z,15.30
2018-06-22T15:27:02.349Z,15.30
2018-06-22T15:29:29.196Z,15.30
2018-06-22T15:31:56.147Z,15.40
2018-06-22T15:37:33.132Z,15.50
2018-06-22T15:40:16.870Z,15.50
2018-06-22T15:42:59.660Z,15.20
2018-06-22T15:45:28.893Z,15.20
2018-06-22T15:48:03.211Z,15.00
2018-06-22T15:50:45.988Z,14.50
2018-06-22T15:53:31.063Z,14.40
2018-06-22T15:55:58.940Z,14.10
2018-06-22T15:58:27.726Z,13.70
2018-06-22T16:00:56.195Z,13.30
2018-06-22T16:03:30.759Z,13.30
2018-06-22T16:05:58.906Z,13.40
2018-06-22T16:08:27.220Z,13.20
2018-06-22T16:10:55.994Z,13.20
2018-06-22T16:13:24.756Z,13.20
2018-06-22T16:16:08.555Z,13.30
2018-06-22T16:18:52.265Z,13.30
2018-06-22T16:21:27.212Z,13.60
2018-06-22T16:24:11.455Z,13.70
2018-06-22T16:26:55.507Z,13.80
2018-06-22T16:29:22.983Z,14.00
2018-06-22T16:31:50.829Z,14.20
2018-06-22T16:34:19.820Z,14.30
2018-06-22T16:36:48.162Z,14.30
2018-06-22T16:39:17.222Z,14.70
2018-06-22T16:41:47.473Z,14.70
2018-06-22T16:44:15.880Z,14.70
2018-06-22T16:47:11.806Z,15.00
2018-06-22T16:49:46.387Z,15.10
2018-06-22T16:52:13.499Z,14.80
2018-06-22T16:54:40.347Z,14.60
2018-06-22T16:57:08.078Z,14.50
2018-06-22T16:59:34.964Z,14.50
2018-06-22T17:02:01.817Z,14.40
2018-06-22T17:04:28.659Z,14.40
2018-06-22T17:06:55.520Z,14.50
2018-06-22T17:09:38.336Z,14.80
2018-06-22T17:12:21.956Z,15.00
2018-06-22T17:15:05.689Z,15.00
2018-06-22T17:17:47.477Z,15.10
2018-06-22T17:20:14.325Z,15.00
2018-06-22T17:22:41.378Z,14.90
2018-06-22T17:25:08.226Z,14.90
2018-06-22T17:27:35.062Z,14.70
2018-06-22T17:30:01.925Z,14.60
2018-06-22T17:32:28.656Z,14.40
2018-06-22T17:34:55.624Z,14.20
2018-06-22T17:37:22.776Z,14.20
2018-06-22T17:39:50.037Z,14.20
2018-06-22T17:42:17.247Z,14.20
2018-06-22T17:44:44.743Z,14.10
2018-06-22T17:47:11.527Z,14.10
2018-06-22T17:49:38.293Z,14.00
2018-06-22T17:52:05.425Z,13.90
2018-06-22T17:54:32.264Z,13.90
2018-06-22T17:56:59.052Z,13.90
2018-06-22T17:59:26.164Z,13.80
2018-06-22T18:02:07.929Z,13.80
2018-06-22T18:04:35.309Z,13.70
2018-06-22T18:07:02.124Z,13.70
2018-06-22T18:09:28.957Z,13.70
2018-06-22T18:12:15.553Z,13.60
2018-06-22T18:14:42.451Z,13.50
2018-06-22T18:17:10.322Z,13.20
2018-06-22T18:19:37.274Z,13.20
2018-06-22T18:22:04.097Z,13.00
2018-06-22T18:24:30.854Z,13.00
2018-06-22T18:26:57.821Z,12.90
2018-06-22T18:29:24.669Z,12.90
2018-06-22T18:31:51.516Z,12.90
2018-06-22T18:34:18.479Z,12.90
2018-06-22T18:36:46.037Z,12.90
2018-06-22T18:39:12.984Z,12.90
2018-06-22T18:41:39.933Z,13.00
2018-06-22T18:44:06.782Z,13.10
2018-06-22T18:46:33.630Z,13.10
2018-06-22T18:49:01.197Z,13.20
2018-06-22T18:51:28.041Z,13.10
2018-06-22T18:54:01.341Z,13.00
2018-06-22T18:56:43.977Z,13.00
2018-06-22T18:59:18.471Z,12.90
2018-06-22T19:02:02.510Z,12.90
2018-06-22T19:04:30.178Z,12.70
2018-06-22T19:06:57.130Z,12.70
2018-06-22T19:09:24.079Z,12.60
2018-06-22T19:11:50.925Z,12.40
2018-06-22T19:14:17.882Z,12.40
2018-06-22T19:16:51.260Z,12.20
2018-06-22T19:19:43.216Z,12.10
2018-06-22T19:22:15.982Z,11.80
2018-06-22T19:24:43.751Z,11.60
2018-06-22T19:27:10.615Z,11.60
2018-06-22T19:29:37.775Z,11.50
2018-06-22T19:32:04.715Z,11.30
2018-06-22T19:34:31.556Z,11.10
2018-06-22T19:36:58.507Z,11.00
2018-06-22T19:39:25.357Z,10.90
2018-06-22T19:41:52.305Z,10.70
2018-06-22T19:44:35.327Z,10.60
2018-06-22T19:47:18.647Z,10.30
2018-06-22T19:50:05.555Z,10.30
2018-06-22T19:52:54.134Z,10.00
2018-06-22T19:55:21.458Z,10.10
2018-06-22T19:57:48.615Z,9.90
2018-06-22T20:03:12.610Z,9.60
2018-06-22T20:05:39.850Z,9.50
2018-06-22T20:08:07.731Z,9.40
2018-06-22T20:10:35.706Z,9.30
2018-06-22T20:13:02.499Z,9.30
2018-06-22T20:15:29.504Z,9.20
2018-06-22T20:17:56.439Z,9.10
2018-06-22T20:20:23.306Z,9.10
2018-06-22T20:22:50.415Z,9.00
2018-06-22T20:25:17.413Z,9.00
2018-06-22T20:27:44.360Z,8.90
2018-06-22T20:30:11.232Z,8.90
2018-06-22T20:32:38.160Z,8.90
2018-06-22T20:35:05.112Z,8.80
2018-06-22T20:37:48.852Z,8.80
2018-06-22T20:40:30.528Z,8.70
2018-06-22T20:42:57.785Z,8.70
2018-06-22T20:48:36.620Z,8.80
2018-06-22T20:51:03.735Z,8.90
2018-06-22T20:53:31.238Z,9.00
2018-06-22T20:55:58.802Z,8.90
2018-06-22T20:58:26.367Z,9.00
2018-06-22T21:00:53.216Z,9.10
2018-06-22T21:03:20.168Z,9.10
2018-06-22T21:05:47.221Z,9.20
2018-06-22T21:08:21.089Z,9.30
2018-06-22T21:10:51.297Z,9.40
2018-06-22T21:13:19.027Z,9.40
2018-06-22T21:15:47.561Z,9.50
2018-06-22T21:18:14.975Z,9.50
2018-06-22T21:20:42.338Z,9.50
2018-06-22T21:23:09.182Z,9.60
2018-06-22T21:25:36.036Z,9.50
2018-06-22T21:28:09.024Z,9.60
2018-06-22T21:30:51.488Z,9.60
2018-06-22T21:36:38.454Z,9.70
2018-06-22T21:39:06.609Z,9.70
2018-06-22T21:41:33.528Z,9.70
2018-06-22T21:44:00.752Z,9.70
2018-06-22T21:46:27.974Z,9.80
2018-06-22T21:48:54.924Z,9.80
2018-06-22T21:51:22.233Z,9.80
2018-06-22T21:53:50.060Z,9.70
2018-06-22T21:56:17.109Z,9.70
2018-06-22T21:58:44.060Z,9.70
2018-06-22T22:01:11.111Z,9.60
2018-06-22T22:03:38.473Z,9.50
2018-06-22T22:06:06.406Z,9.50
2018-06-22T22:08:34.162Z,9.30
2018-06-22T22:11:01.740Z,9.30
2018-06-22T22:13:28.653Z,9.30
2018-06-22T22:15:56.708Z,9.00
2018-06-22T22:18:23.916Z,9.10
2018-06-22T22:20:51.651Z,9.00
2018-06-22T22:23:18.688Z,9.00
2018-06-22T22:25:45.476Z,9.00
2018-06-22T22:28:13.351Z,8.90
2018-06-22T22:30:40.192Z,8.90
2018-06-22T22:33:07.527Z,8.90
2018-06-22T22:35:34.666Z,8.90
2018-06-22T22:38:03.893Z,8.80
2018-06-22T22:40:31.093Z,8.80
2018-06-22T22:42:59.224Z,8.70
2018-06-22T22:45:26.564Z,8.70
2018-06-22T22:47:56.119Z,8.50
2018-06-22T22:50:23.353Z,8.50
2018-06-22T22:52:51.597Z,8.40
2018-06-22T22:55:18.921Z,8.40
2018-06-22T22:57:46.382Z,8.30
2018-06-22T23:00:13.961Z,8.30
2018-06-22T23:02:43.748Z,8.30
2018-06-22T23:05:11.961Z,8.20
2018-06-22T23:07:39.765Z,8.10
2018-06-22T23:10:08.253Z,8.10
2018-06-22T23:12:35.330Z,8.10
2018-06-22T23:15:03.400Z,8.10
2018-06-22T23:17:31.623Z,8.00
2018-06-22T23:19:58.895Z,7.90
2018-06-22T23:22:27.327Z,7.80
2018-06-22T23:24:57.489Z,7.70
2018-06-22T23:27:25.323Z,7.60
2018-06-22T23:29:52.414Z,7.60
2018-06-22T23:32:20.029Z,7.50
2018-06-22T23:34:47.951Z,7.40
2018-06-22T23:37:15.015Z,7.40
2018-06-22T23:39:43.753Z,7.40
2018-06-22T23:42:11.385Z,7.40
2018-06-22T23:44:38.411Z,7.30
2018-06-22T23:47:05.763Z,7.30
2018-06-22T23:49:33.570Z,7.10
2018-06-22T23:52:01.344Z,7.10
2018-06-22T23:54:28.622Z,7.10
2018-06-22T23:56:55.873Z,7.10
2018-06-22T23:59:23.692Z,7.00
